Time;durP1;ratioP1;P1;durP2;ratioP2;P2;SDS_P1;SDS_P2;PMS_P1;PMS_P2;Temp;Humidity;BMP_temperature;BMP_pressure;BME280_temperature;BME280_humidity;BME280_pressure;Samples;Min_cycle;Max_cycle;Signal;HPM_P1;HPM_P2
2024/01/19 00:00:00;;;;;;;61.97;34.92;;;-1.20;89.70;;;;;;5103581;28;20465;-73
2024/01/19 00:02:25;;;;;;;61.47;36.13;;;-1.00;89.20;;;;;;5098672;28;20421;-73
2024/01/19 00:04:51;;;;;;;70.50;36.00;;;-0.90;89.50;;;;;;5097421;28;20846;-73
2024/01/19 00:07:17;;;;;;;69.15;34.53;;;-0.80;89.20;;;;;;5098989;28;20412;-71
2024/01/19 00:09:42;;;;;;;66.90;35.27;;;-0.80;86.60;;;;;;5100403;28;20443;-72
2024/01/19 00:12:08;;;;;;;65.83;34.93;;;-0.70;86.30;;;;;;5099455;28;20393;-73
2024/01/19 00:14:34;;;;;;;66.10;35.10;;;-0.70;86.20;;;;;;5096816;28;20392;-73
2024/01/19 00:16:59;;;;;;;64.80;34.40;;;-0.70;85.30;;;;;;5098931;28;20386;-74
2024/01/19 00:19:25;;;;;;;70.43;34.27;;;-0.70;86.00;;;;;;5101408;28;20398;-73
2024/01/19 00:21:50;;;;;;;74.63;35.90;;;-0.70;86.20;;;;;;5081823;28;20393;-74
2024/01/19 00:24:16;;;;;;;67.38;35.45;;;-0.70;86.90;;;;;;5099811;28;20398;-73
2024/01/19 00:26:47;;;;;;;71.82;37.30;;;-0.60;86.20;;;;;;5100985;28;20386;-72
2024/01/19 00:29:13;;;;;;;71.33;37.70;;;-0.50;83.10;;;;;;5079333;28;20741;-72
2024/01/19 00:31:38;;;;;;;71.15;35.30;;;-0.60;83.20;;;;;;5093885;28;20394;-74
2024/01/19 00:34:04;;;;;;;63.60;33.63;;;-0.60;83.70;;;;;;5094737;28;20812;-74
2024/01/19 00:36:30;;;;;;;63.70;32.40;;;-0.60;82.60;;;;;;5094559;28;20471;-73
2024/01/19 00:38:55;;;;;;;58.70;32.83;;;-0.60;81.60;;;;;;5094746;28;20386;-74
2024/01/19 00:41:21;;;;;;;60.10;31.52;;;-0.50;80.70;;;;;;5095595;28;20392;-75
2024/01/19 00:43:46;;;;;;;66.55;34.10;;;-0.60;80.70;;;;;;5095780;28;20398;-73
2024/01/19 00:46:12;;;;;;;56.70;33.37;;;-0.70;81.30;;;;;;5095496;28;20481;-72
2024/01/19 00:48:37;;;;;;;63.23;33.20;;;-0.60;80.80;;;;;;5078680;28;20386;-72
2024/01/19 00:51:03;;;;;;;61.15;33.13;;;-0.60;79.20;;;;;;5098054;28;20386;-73
2024/01/19 00:53:29;;;;;;;68.30;33.90;;;-0.60;79.20;;;;;;5093904;28;20749;-72
2024/01/19 00:55:55;;;;;;;59.30;32.67;;;-0.70;80.40;;;;;;5094313;28;20389;-73
2024/01/19 00:58:20;;;;;;;60.45;33.97;;;-0.60;80.60;;;;;;5094178;28;20794;-71
2024/01/19 01:00:46;;;;;;;61.65;34.20;;;-0.50;79.50;;;;;;5093596;28;20394;-72
2024/01/19 01:03:21;;;;;;;59.22;33.42;;;-0.60;78.30;;;;;;5075700;28;20754;-71
2024/01/19 01:05:47;;;;;;;60.80;34.40;;;-0.50;77.20;;;;;;5094295;28;20456;-71
2024/01/19 01:08:12;;;;;;;59.43;32.80;;;-0.60;77.60;;;;;;5093750;28;20382;-72
2024/01/19 01:10:38;;;;;;;69.50;36.13;;;-0.40;74.50;;;;;;5093621;28;20382;-72
2024/01/19 01:13:03;;;;;;;62.60;35.05;;;-0.50;75.70;;;;;;5093353;28;20388;-72
2024/01/19 01:15:29;;;;;;;65.90;36.35;;;-0.50;76.00;;;;;;5078116;28;20404;-72
2024/01/19 01:17:54;;;;;;;66.40;36.00;;;-0.60;77.00;;;;;;5094059;28;20447;-72
2024/01/19 01:20:20;;;;;;;61.00;35.40;;;-0.60;77.80;;;;;;5092906;28;20469;-72
2024/01/19 01:22:46;;;;;;;69.35;35.60;;;-0.60;77.70;;;;;;5093068;28;20389;-72
2024/01/19 01:25:11;;;;;;;67.45;36.60;;;-0.60;77.30;;;;;;5094334;28;20896;-72
2024/01/19 01:27:37;;;;;;;63.40;33.85;;;-0.60;78.00;;;;;;5095511;28;20406;-71
2024/01/19 01:30:07;;;;;;;64.23;34.40;;;-0.60;77.20;;;;;;5094164;28;20471;-73
2024/01/19 01:32:33;;;;;;;65.00;34.17;;;-0.60;76.80;;;;;;5095139;28;20394;-72
2024/01/19 01:34:59;;;;;;;55.70;29.60;;;-0.50;75.70;;;;;;5101288;28;20532;-72
2024/01/19 01:37:26;;;;;;;56.50;31.27;;;-0.60;74.90;;;;;;5094433;28;20418;-71
2024/01/19 01:39:51;;;;;;;60.92;31.27;;;-0.60;75.40;;;;;;5093582;28;20443;-71
2024/01/19 01:42:17;;;;;;;62.65;32.25;;;-0.60;75.70;;;;;;5093178;28;20405;-72
2024/01/19 01:44:42;;;;;;;60.23;30.17;;;-0.60;76.10;;;;;;5093210;28;20917;-72
2024/01/19 01:47:08;;;;;;;67.73;33.23;;;-0.50;76.20;;;;;;5058226;28;20382;-72
2024/01/19 01:49:33;;;;;;;68.17;33.23;;;-0.50;76.10;;;;;;5093069;28;20389;-71
2024/01/19 01:51:59;;;;;;;70.35;34.33;;;-0.50;76.90;;;;;;5073462;28;20455;-71
2024/01/19 01:54:25;;;;;;;68.50;32.45;;;-0.40;76.80;;;;;;5092901;28;20868;-71
2024/01/19 01:56:52;;;;;;;67.38;33.03;;;-0.40;77.10;;;;;;5074654;28;20939;-70
2024/01/19 01:59:19;;;;;;;74.63;33.95;;;-0.40;77.30;;;;;;5093078;28;20384;-72
2024/01/19 02:01:45;;;;;;;68.13;34.03;;;-0.30;76.40;;;;;;5092854;28;20531;-71
2024/01/19 02:04:12;;;;;;;74.82;34.65;;;-0.20;75.90;;;;;;5092694;28;20455;-73
2024/01/19 02:06:38;;;;;;;74.47;35.40;;;-0.30;76.10;;;;;;5093393;28;20382;-71
2024/01/19 02:09:05;;;;;;;76.32;35.55;;;-0.30;76.90;;;;;;5092474;28;20374;-73
2024/01/19 02:11:31;;;;;;;73.68;32.83;;;-0.30;77.30;;;;;;5092206;28;20378;-72
2024/01/19 02:13:57;;;;;;;68.28;31.90;;;-0.20;77.30;;;;;;5092202;28;20386;-72
2024/01/19 02:16:22;;;;;;;65.93;32.20;;;-0.10;76.20;;;;;;5092765;28;20760;-73
2024/01/19 02:18:48;;;;;;;72.93;32.33;;;0.00;75.90;;;;;;5074035;28;20390;-72
2024/01/19 02:21:13;;;;;;;74.90;35.13;;;-0.10;75.90;;;;;;5091657;28;20382;-72
2024/01/19 02:23:56;;;;;;;88.20;38.07;;;-0.10;76.60;;;;;;5092042;28;20501;-72
2024/01/19 02:26:22;;;;;;;85.97;36.92;;;0.00;76.10;;;;;;5091830;28;20386;-71
2024/01/19 02:28:48;;;;;;;94.63;38.03;;;-0.10;75.90;;;;;;5074013;28;20379;-71
2024/01/19 02:31:14;;;;;;;83.60;37.27;;;0.00;75.00;;;;;;5106227;22;20856;-74
2024/01/19 02:33:39;;;;;;;82.10;36.65;;;-0.10;75.90;;;;;;5094704;28;20378;-73
2024/01/19 02:36:05;;;;;;;90.47;37.00;;;-0.10;76.50;;;;;;5096853;28;20526;-74
2024/01/19 02:38:31;;;;;;;82.60;36.35;;;-0.10;76.60;;;;;;5098125;28;20451;-73
2024/01/19 02:40:56;;;;;;;83.03;35.13;;;0.00;77.10;;;;;;5096704;28;20411;-73
2024/01/19 02:43:22;;;;;;;83.13;36.30;;;0.00;77.70;;;;;;5112704;28;20396;-75
2024/01/19 02:45:47;;;;;;;85.00;36.08;;;0.00;77.80;;;;;;5113550;28;20392;-75
2024/01/19 02:48:13;;;;;;;82.55;35.35;;;0.10;77.10;;;;;;5112366;28;20369;-74
2024/01/19 02:50:38;;;;;;;86.30;36.88;;;0.10;76.30;;;;;;5112394;28;20372;-74
2024/01/19 02:53:04;;;;;;;85.50;37.40;;;0.10;77.50;;;;;;5094359;28;20380;-73
2024/01/19 02:55:29;;;;;;;85.77;35.70;;;0.10;77.40;;;;;;5113940;28;20391;-75
2024/01/19 02:57:55;;;;;;;81.73;36.23;;;0.20;76.80;;;;;;5113318;28;20380;-74
2024/01/19 03:00:20;;;;;;;77.57;34.47;;;0.20;76.00;;;;;;5113622;28;20384;-74
2024/01/19 03:02:46;;;;;;;74.13;34.88;;;0.20;75.80;;;;;;5113211;28;20441;-74
2024/01/19 03:05:11;;;;;;;78.03;34.17;;;0.30;76.40;;;;;;5112203;28;20392;-73
2024/01/19 03:07:37;;;;;;;80.18;35.88;;;0.20;76.30;;;;;;5111591;28;20554;-72
2024/01/19 03:10:03;;;;;;;76.50;34.40;;;0.20;76.40;;;;;;5111725;28;20376;-74
2024/01/19 03:12:29;;;;;;;75.20;32.95;;;0.30;76.90;;;;;;5111401;28;20421;-73
2024/01/19 03:14:54;;;;;;;73.00;34.23;;;0.30;75.40;;;;;;5112767;28;20381;-73
2024/01/19 03:17:20;;;;;;;74.00;34.63;;;0.40;75.20;;;;;;5098341;28;20884;-75
2024/01/19 03:19:46;;;;;;;75.47;34.10;;;0.40;75.50;;;;;;5112352;28;20365;-74
2024/01/19 03:22:11;;;;;;;72.20;34.10;;;0.30;74.80;;;;;;5112041;28;20380;-73
2024/01/19 03:24:37;;;;;;;69.82;32.33;;;0.40;74.70;;;;;;5112498;28;20407;-74
2024/01/19 03:27:02;;;;;;;66.63;31.70;;;0.40;75.30;;;;;;5112765;28;20425;-75
2024/01/19 03:29:28;;;;;;;70.13;33.33;;;0.40;75.40;;;;;;5113106;28;20449;-74
2024/01/19 03:31:54;;;;;;;70.25;32.95;;;0.40;75.20;;;;;;5111835;28;20452;-73
2024/01/19 03:34:20;;;;;;;75.07;33.87;;;0.40;75.40;;;;;;5112642;28;20388;-73
2024/01/19 03:36:46;;;;;;;73.63;33.63;;;0.40;76.00;;;;;;5112160;28;20376;-73
2024/01/19 03:39:12;;;;;;;72.00;32.70;;;0.50;75.10;;;;;;5093020;28;20921;-74
2024/01/19 03:41:37;;;;;;;73.47;32.28;;;0.50;75.00;;;;;;5111625;28;20471;-74
2024/01/19 03:44:03;;;;;;;70.13;33.73;;;0.60;74.30;;;;;;5111451;28;20482;-72
2024/01/19 03:46:29;;;;;;;73.07;32.13;;;0.50;74.90;;;;;;5093306;28;20399;-74
2024/01/19 03:48:54;;;;;;;70.60;32.23;;;0.50;75.20;;;;;;5111565;28;20372;-73
2024/01/19 03:51:20;;;;;;;72.65;33.40;;;0.60;74.80;;;;;;5111452;28;20394;-73
2024/01/19 03:53:45;;;;;;;75.75;33.40;;;0.60;74.90;;;;;;5111650;28;20376;-73
2024/01/19 03:56:11;;;;;;;78.63;34.17;;;0.60;74.90;;;;;;5111326;28;20416;-73
2024/01/19 03:58:37;;;;;;;77.88;34.75;;;0.60;74.90;;;;;;5111845;28;20735;-73
2024/01/19 04:01:05;;;;;;;74.73;32.90;;;0.60;74.90;;;;;;5111404;28;20384;-73
2024/01/19 04:03:31;;;;;;;76.93;34.88;;;0.60;76.00;;;;;;5111535;28;20407;-75
2024/01/19 04:05:57;;;;;;;74.40;33.73;;;0.70;74.80;;;;;;5111311;28;20979;-74
2024/01/19 04:08:22;;;;;;;78.40;33.57;;;0.80;73.90;;;;;;5110839;28;20390;-75
2024/01/19 04:10:48;;;;;;;82.25;33.97;;;0.80;74.10;;;;;;5092727;28;20434;-74
2024/01/19 04:13:13;;;;;;;74.50;32.10;;;0.80;74.40;;;;;;5110954;28;20467;-74
2024/01/19 04:15:39;;;;;;;77.40;34.38;;;0.90;72.70;;;;;;5093671;28;20376;-75
2024/01/19 04:18:04;;;;;;;75.10;33.05;;;0.80;73.60;;;;;;5096791;28;20461;-75
2024/01/19 04:20:30;;;;;;;73.23;32.70;;;0.80;73.20;;;;;;5114764;28;20380;-74
2024/01/19 04:22:56;;;;;;;73.17;31.90;;;0.90;73.80;;;;;;5096796;28;20427;-75
2024/01/19 04:25:21;;;;;;;75.90;31.63;;;0.80;73.80;;;;;;5114879;28;20541;-75
2024/01/19 04:27:47;;;;;;;69.43;30.85;;;0.80;74.10;;;;;;5114709;28;20407;-72
2024/01/19 04:30:13;;;;;;;71.28;31.95;;;0.90;73.20;;;;;;5114039;28;20719;-75
2024/01/19 04:32:38;;;;;;;61.00;28.13;;;0.90;73.80;;;;;;5104004;28;20394;-74
2024/01/19 04:35:04;;;;;;;66.17;29.13;;;0.90;73.30;;;;;;5111001;28;20798;-73
2024/01/19 04:37:30;;;;;;;64.10;28.60;;;1.00;72.20;;;;;;5096392;28;20382;-73
2024/01/19 04:39:56;;;;;;;78.60;29.87;;;0.90;72.50;;;;;;5095400;28;20396;-73
2024/01/19 04:42:21;;;;;;;72.57;31.17;;;1.00;72.20;;;;;;5109779;28;20400;-73
2024/01/19 04:44:47;;;;;;;68.97;30.83;;;0.90;73.00;;;;;;5107382;28;20372;-73
2024/01/19 04:47:12;;;;;;;66.23;28.93;;;0.80;73.90;;;;;;5096032;28;20380;-72
2024/01/19 04:49:38;;;;;;;71.60;30.07;;;0.90;74.30;;;;;;5114114;28;20371;-72
2024/01/19 04:52:04;;;;;;;71.20;30.87;;;0.90;75.50;;;;;;5101239;28;20392;-70
2024/01/19 04:54:29;;;;;;;66.57;29.50;;;1.00;74.80;;;;;;5115750;28;20381;-71
2024/01/19 04:56:55;;;;;;;68.45;28.98;;;1.00;74.50;;;;;;5114393;28;20396;-71
2024/01/19 04:59:21;;;;;;;71.63;29.83;;;1.00;73.90;;;;;;5113127;28;20447;-71
2024/01/19 05:01:46;;;;;;;65.50;28.77;;;1.00;73.90;;;;;;5114015;28;20395;-70
2024/01/19 05:04:12;;;;;;;65.70;28.67;;;1.00;74.10;;;;;;5103935;28;20408;-71
2024/01/19 05:06:37;;;;;;;68.05;30.63;;;1.10;73.80;;;;;;5102749;28;20393;-74
2024/01/19 05:09:03;;;;;;;61.25;28.10;;;1.10;73.50;;;;;;5100984;28;20950;-73
2024/01/19 05:11:28;;;;;;;62.70;28.37;;;1.30;72.60;;;;;;5114349;28;20463;-73
2024/01/19 05:13:54;;;;;;;63.80;28.73;;;1.30;71.00;;;;;;5114442;28;20383;-75
2024/01/19 05:16:20;;;;;;;66.50;28.90;;;1.30;72.50;;;;;;5114153;28;20392;-75
2024/01/19 05:18:45;;;;;;;69.07;28.90;;;1.20;72.80;;;;;;5114531;28;20381;-75
2024/01/19 05:21:11;;;;;;;65.50;29.33;;;1.30;72.60;;;;;;5114285;28;20381;-74
2024/01/19 05:23:36;;;;;;;67.60;29.10;;;1.30;72.90;;;;;;5114771;28;20404;-75
2024/01/19 05:26:04;;;;;;;64.25;28.17;;;1.30;72.90;;;;;;5116085;28;20388;-75
2024/01/19 05:28:33;;;;;;;71.38;29.73;;;1.30;74.20;;;;;;5114895;28;20385;-74
2024/01/19 05:30:59;;;;;;;59.63;28.75;;;1.30;74.70;;;;;;5097736;28;20388;-73
2024/01/19 05:33:25;;;;;;;68.23;30.13;;;1.40;73.60;;;;;;5116360;28;20462;-74
2024/01/19 05:35:50;;;;;;;65.73;28.53;;;1.40;73.00;;;;;;5117988;28;20893;-75
2024/01/19 05:38:16;;;;;;;68.67;29.70;;;1.50;73.20;;;;;;5097549;28;20420;-76
2024/01/19 05:40:41;;;;;;;65.55;28.15;;;1.40;73.60;;;;;;5096508;28;20480;-75
2024/01/19 05:43:07;;;;;;;66.20;30.55;;;1.50;72.90;;;;;;5114812;28;20774;-75
2024/01/19 05:45:32;;;;;;;66.45;29.17;;;1.70;71.30;;;;;;5115414;28;20382;-75
2024/01/19 05:47:58;;;;;;;67.07;28.80;;;1.60;71.00;;;;;;5115904;28;20387;-75
2024/01/19 05:50:23;;;;;;;65.73;28.60;;;1.60;70.80;;;;;;5115501;28;20419;-75
2024/01/19 05:52:49;;;;;;;61.70;28.17;;;1.60;71.50;;;;;;5115493;28;20385;-76
2024/01/19 05:55:14;;;;;;;62.10;27.87;;;1.60;71.90;;;;;;5096705;28;20392;-74
2024/01/19 05:57:40;;;;;;;53.10;27.17;;;1.50;71.90;;;;;;5116419;28;20752;-75
2024/01/19 06:00:06;;;;;;;63.97;28.80;;;1.60;71.10;;;;;;5118336;28;20388;-75
2024/01/19 06:02:32;;;;;;;58.22;27.58;;;1.70;68.70;;;;;;5115982;28;20400;-75
2024/01/19 06:04:57;;;;;;;67.97;27.57;;;1.60;69.80;;;;;;5117718;28;20376;-74
2024/01/19 06:07:23;;;;;;;62.10;28.13;;;1.60;70.50;;;;;;5115051;28;20400;-76
2024/01/19 06:09:49;;;;;;;54.08;25.60;;;1.60;70.50;;;;;;5121597;28;20376;-74
2024/01/19 06:12:15;;;;;;;55.77;25.80;;;1.60;68.10;;;;;;5115889;28;20373;-76
2024/01/19 06:14:40;;;;;;;59.97;27.67;;;1.60;69.00;;;;;;5115523;28;20419;-74
2024/01/19 06:17:06;;;;;;;53.85;25.45;;;1.60;69.50;;;;;;5119478;28;20869;-78
2024/01/19 06:19:31;;;;;;;50.13;24.10;;;1.60;68.70;;;;;;5121060;28;20714;-75
2024/01/19 06:21:57;;;;;;;52.20;26.60;;;1.60;69.00;;;;;;5117224;28;20389;-75
2024/01/19 06:24:23;;;;;;;53.40;25.73;;;1.60;69.90;;;;;;5124203;28;20400;-75
2024/01/19 06:26:49;;;;;;;52.77;25.83;;;2.30;69.30;;;;;;5121769;28;20440;-74
2024/01/19 06:29:15;;;;;;;54.28;25.98;;;1.60;68.60;;;;;;5126765;28;20429;-74
2024/01/19 06:31:47;;;;;;;55.85;27.30;;;1.50;69.60;;;;;;5124245;28;20388;-75
2024/01/19 06:34:14;;;;;;;49.88;25.23;;;1.60;68.70;;;;;;5127344;28;20388;-74
2024/01/19 06:36:46;;;;;;;47.53;25.15;;;1.60;68.50;;;;;;5099313;28;20521;-76
2024/01/19 06:39:13;;;;;;;49.80;24.60;;;1.50;67.90;;;;;;5116899;28;20467;-75
2024/01/19 06:41:42;;;;;;;50.05;25.30;;;1.60;67.20;;;;;;5115827;28;20448;-74
2024/01/19 06:44:09;;;;;;;43.60;24.10;;;1.60;67.50;;;;;;5113876;28;20482;-75
2024/01/19 06:46:35;;;;;;;53.65;25.30;;;1.50;68.70;;;;;;5120816;28;20442;-75
2024/01/19 06:49:00;;;;;;;55.08;25.33;;;1.50;67.40;;;;;;5120485;28;20468;-75
2024/01/19 06:51:28;;;;;;;52.70;25.40;;;1.50;68.30;;;;;;5116187;28;20376;-74
2024/01/19 06:53:57;;;;;;;50.40;23.70;;;1.60;66.00;;;;;;5114781;28;20389;-75
2024/01/19 06:56:23;;;;;;;47.60;23.50;;;1.60;65.80;;;;;;5117923;28;20866;-76
2024/01/19 06:58:48;;;;;;;56.80;24.77;;;1.60;64.80;;;;;;5096543;28;20395;-74
2024/01/19 07:01:14;;;;;;;51.37;25.00;;;1.60;65.00;;;;;;5114293;28;20381;-75
2024/01/19 07:03:40;;;;;;;52.07;26.77;;;1.50;66.40;;;;;;5112590;28;20478;-76
2024/01/19 07:06:05;;;;;;;47.47;25.63;;;1.40;67.00;;;;;;5113912;28;20434;-74
2024/01/19 07:08:31;;;;;;;54.70;24.90;;;1.40;67.30;;;;;;5114714;28;20802;-76
2024/01/19 07:10:56;;;;;;;52.23;25.93;;;1.40;68.40;;;;;;5114351;28;20408;-75
2024/01/19 07:13:22;;;;;;;50.00;26.00;;;1.40;68.20;;;;;;5114786;28;20387;-76
2024/01/19 07:15:48;;;;;;;46.72;24.65;;;1.50;67.00;;;;;;5113687;28;20380;-74
2024/01/19 07:18:14;;;;;;;50.43;25.87;;;1.50;67.10;;;;;;5114152;28;20376;-76
2024/01/19 07:20:39;;;;;;;57.53;25.23;;;1.50;66.70;;;;;;5095168;28;20402;-74
2024/01/19 07:23:05;;;;;;;46.00;25.13;;;1.60;65.40;;;;;;5114765;28;20788;-75
2024/01/19 07:25:31;;;;;;;50.80;25.93;;;1.50;65.50;;;;;;5118222;28;20392;-74
2024/01/19 07:27:57;;;;;;;49.75;25.45;;;1.50;64.70;;;;;;5121213;28;20402;-74
2024/01/19 07:30:22;;;;;;;47.00;24.70;;;1.50;64.20;;;;;;5116179;28;20380;-75
2024/01/19 07:32:48;;;;;;;48.30;26.10;;;1.60;63.40;;;;;;5119831;28;20385;-76
2024/01/19 07:35:13;;;;;;;48.00;25.60;;;1.50;65.10;;;;;;5118762;28;20447;-75
2024/01/19 07:37:39;;;;;;;47.47;24.92;;;1.50;65.40;;;;;;5120718;28;20391;-75
2024/01/19 07:40:05;;;;;;;47.33;24.73;;;1.50;64.20;;;;;;5122318;28;20376;-75
2024/01/19 07:42:31;;;;;;;48.28;24.60;;;1.60;62.40;;;;;;5103169;28;20911;-75
2024/01/19 07:44:56;;;;;;;50.67;26.77;;;1.60;62.20;;;;;;5098252;28;20385;-75
2024/01/19 07:47:22;;;;;;;50.40;25.73;;;1.60;63.20;;;;;;5115137;28;20391;-76
2024/01/19 07:49:48;;;;;;;49.43;25.07;;;1.50;63.60;;;;;;5115619;28;20380;-76
2024/01/19 07:52:13;;;;;;;53.93;27.27;;;1.40;64.70;;;;;;5118322;28;20379;-76
2024/01/19 07:54:39;;;;;;;52.72;26.10;;;1.50;64.60;;;;;;5118845;28;20376;-76
2024/01/19 07:57:04;;;;;;;50.33;25.55;;;1.50;64.20;;;;;;5119717;28;20404;-75
2024/01/19 07:59:30;;;;;;;49.60;23.88;;;1.60;62.90;;;;;;5119166;28;20386;-76
2024/01/19 08:01:55;;;;;;;51.20;25.57;;;1.60;62.60;;;;;;5118531;28;20384;-76
2024/01/19 08:04:21;;;;;;;45.80;24.77;;;1.80;62.20;;;;;;5117182;28;20410;-75
2024/01/19 08:06:46;;;;;;;42.07;24.77;;;1.80;61.90;;;;;;5098282;28;20428;-75
2024/01/19 08:09:13;;;;;;;42.67;24.03;;;1.80;60.40;;;;;;5115964;28;20454;-75
2024/01/19 08:11:39;;;;;;;45.28;24.30;;;1.80;61.10;;;;;;5115319;28;20407;-75
2024/01/19 08:14:05;;;;;;;45.17;24.80;;;2.00;58.10;;;;;;5116489;28;20380;-74
2024/01/19 08:16:30;;;;;;;46.93;24.23;;;1.90;59.60;;;;;;5097917;28;20393;-74
2024/01/19 08:18:56;;;;;;;45.63;24.47;;;1.70;60.40;;;;;;5117460;28;20396;-74
2024/01/19 08:21:22;;;;;;;48.53;24.83;;;1.70;61.40;;;;;;5120442;28;20388;-75
2024/01/19 08:23:48;;;;;;;41.67;23.40;;;1.60;63.10;;;;;;5120232;28;20392;-75
2024/01/19 08:26:13;;;;;;;46.22;24.45;;;1.60;62.30;;;;;;5118587;28;20425;-74
2024/01/19 08:28:39;;;;;;;46.13;23.90;;;1.60;62.30;;;;;;5118586;28;20908;-74
2024/01/19 08:31:11;;;;;;;48.23;23.60;;;1.70;61.50;;;;;;5134543;22;20392;-73
2024/01/19 08:33:36;;;;;;;45.13;24.40;;;1.60;60.30;;;;;;5036100;28;20410;-75
2024/01/19 08:36:02;;;;;;;52.70;26.35;;;1.60;61.30;;;;;;5056020;28;20392;-74
2024/01/19 08:38:27;;;;;;;47.55;24.90;;;1.60;61.80;;;;;;5054290;28;20381;-73
2024/01/19 08:40:53;;;;;;;48.67;25.23;;;1.60;61.10;;;;;;5052842;28;20469;-72
2024/01/19 08:43:19;;;;;;;41.83;24.70;;;1.70;60.30;;;;;;5053353;28;20401;-73
2024/01/19 08:45:44;;;;;;;47.33;24.47;;;1.80;59.90;;;;;;5052721;28;20421;-73
2024/01/19 08:48:10;;;;;;;45.88;24.70;;;1.80;60.50;;;;;;5052519;28;20380;-73
2024/01/19 08:50:35;;;;;;;42.00;23.58;;;1.90;59.20;;;;;;5053690;28;20381;-73
2024/01/19 08:53:02;;;;;;;42.35;24.00;;;1.90;58.40;;;;;;5052704;28;20397;-74
2024/01/19 08:55:29;;;;;;;46.83;24.60;;;1.90;57.70;;;;;;5053045;28;20385;-73
2024/01/19 08:57:55;;;;;;;45.30;24.93;;;1.80;57.70;;;;;;5053275;28;20386;-73
2024/01/19 09:00:21;;;;;;;51.63;25.30;;;1.80;57.60;;;;;;5052680;28;20389;-73
2024/01/19 09:02:50;;;;;;;44.35;24.20;;;1.80;56.90;;;;;;5052012;28;20409;-73
2024/01/19 09:05:16;;;;;;;45.40;25.05;;;1.70;57.10;;;;;;5052731;28;20382;-73
2024/01/19 09:07:42;;;;;;;49.63;24.85;;;1.70;57.80;;;;;;5052971;28;20453;-73
2024/01/19 09:10:08;;;;;;;50.22;25.67;;;1.60;57.30;;;;;;5054235;28;20382;-72
2024/01/19 09:12:34;;;;;;;48.25;25.67;;;1.60;58.00;;;;;;5052350;28;20382;-72
2024/01/19 09:14:59;;;;;;;51.90;25.67;;;1.60;58.50;;;;;;5052364;28;20500;-74
2024/01/19 09:17:25;;;;;;;48.58;26.00;;;1.60;58.60;;;;;;5052574;28;20507;-71
2024/01/19 09:19:51;;;;;;;52.47;25.98;;;1.60;59.20;;;;;;5052160;28;20374;-72
2024/01/19 09:22:17;;;;;;;47.42;25.77;;;1.70;59.30;;;;;;5052402;28;20389;-74
2024/01/19 09:24:43;;;;;;;48.60;25.60;;;1.70;58.80;;;;;;5052716;28;20397;-74
2024/01/19 09:27:09;;;;;;;51.78;27.05;;;1.70;60.20;;;;;;5052046;28;20459;-74
2024/01/19 09:29:34;;;;;;;52.72;26.33;;;1.90;59.40;;;;;;5051989;28;20472;-74
2024/01/19 09:32:00;;;;;;;48.90;25.60;;;2.00;58.00;;;;;;5051540;28;20393;-73
2024/01/19 09:34:26;;;;;;;45.67;25.27;;;2.10;56.60;;;;;;5051861;28;20425;-74
2024/01/19 09:36:52;;;;;;;41.60;24.57;;;2.30;55.70;;;;;;5052505;28;20452;-72
2024/01/19 09:39:17;;;;;;;45.97;25.27;;;2.20;55.00;;;;;;5053124;28;20381;-74
2024/01/19 09:41:52;;;;;;;42.78;23.73;;;2.40;53.70;;;;;;5051990;28;20386;-73
2024/01/19 09:44:19;;;;;;;46.08;25.10;;;2.40;53.00;;;;;;5053508;28;20816;-74
2024/01/19 09:46:51;;;;;;;50.20;24.23;;;2.40;53.00;;;;;;5052668;28;20377;-74
2024/01/19 09:49:51;;;;;;;43.47;24.40;;;2.50;52.40;;;;;;5052249;28;20446;-73
2024/01/19 09:52:27;;;;;;;52.73;25.87;;;2.50;52.50;;;;;;5051578;28;20451;-73
2024/01/19 09:54:54;;;;;;;42.85;24.80;;;2.40;53.50;;;;;;5051800;28;20385;-72
2024/01/19 09:57:20;;;;;;;49.78;24.60;;;2.50;52.80;;;;;;5033924;28;20389;-73
2024/01/19 09:59:45;;;;;;;44.85;24.50;;;2.60;52.20;;;;;;5051643;28;20852;-73
2024/01/19 10:02:15;;;;;;;48.33;24.83;;;2.70;51.40;;;;;;5051828;28;20871;-72
2024/01/19 10:04:41;;;;;;;43.00;24.80;;;2.60;51.00;;;;;;5051472;28;20423;-73
2024/01/19 10:07:08;;;;;;;42.03;23.83;;;2.70;51.10;;;;;;5052231;28;20381;-74
2024/01/19 10:09:34;;;;;;;43.30;23.27;;;2.70;51.20;;;;;;5051396;28;20463;-74
2024/01/19 10:12:00;;;;;;;44.42;24.27;;;2.70;50.30;;;;;;5053142;28;20949;-73
2024/01/19 10:14:26;;;;;;;47.47;25.45;;;2.60;51.00;;;;;;5050966;28;20468;-73
2024/01/19 10:16:52;;;;;;;48.22;25.85;;;2.50;51.70;;;;;;5033445;28;20440;-73
2024/01/19 10:19:21;;;;;;;49.53;26.60;;;2.60;52.50;;;;;;5050781;28;20385;-73
2024/01/19 10:21:46;;;;;;;52.50;27.45;;;2.60;53.00;;;;;;5050934;28;20871;-74
2024/01/19 10:24:17;;;;;;;53.97;27.80;;;2.70;53.00;;;;;;5050943;28;20444;-73
2024/01/19 10:26:43;;;;;;;55.95;28.67;;;2.90;52.80;;;;;;5050990;28;20386;-73
2024/01/19 10:29:10;;;;;;;52.17;27.45;;;3.10;51.40;;;;;;5050860;28;20461;-72
2024/01/19 10:31:36;;;;;;;52.75;26.00;;;3.10;50.70;;;;;;5050649;28;20931;-74
2024/01/19 10:34:02;;;;;;;52.42;26.98;;;3.30;48.10;;;;;;5050953;28;20447;-74
2024/01/19 10:36:37;;;;;;;53.87;25.73;;;3.20;48.20;;;;;;5051139;28;20393;-74
2024/01/19 10:39:18;;;;;;;46.90;25.75;;;3.10;48.90;;;;;;5050721;28;20388;-74
2024/01/19 10:41:44;;;;;;;53.47;26.95;;;3.20;49.30;;;;;;5050718;28;20385;-74
2024/01/19 10:44:12;;;;;;;48.42;25.42;;;3.30;49.30;;;;;;5050994;28;20891;-73
2024/01/19 10:46:37;;;;;;;53.40;26.75;;;3.30;49.10;;;;;;5051368;28;20401;-74
2024/01/19 10:49:04;;;;;;;50.80;25.20;;;3.30;49.50;;;;;;5051188;28;20377;-74
2024/01/19 10:51:31;;;;;;;47.17;24.50;;;3.30;49.10;;;;;;5051872;28;20531;-74
2024/01/19 10:54:04;;;;;;;49.42;25.52;;;3.40;48.80;;;;;;5051855;28;20393;-74
2024/01/19 10:56:29;;;;;;;50.80;23.75;;;3.50;47.40;;;;;;5051615;28;20859;-73
2024/01/19 10:58:55;;;;;;;51.40;25.97;;;3.40;47.40;;;;;;5050445;28;20467;-73
2024/01/19 11:01:21;;;;;;;47.53;24.73;;;3.40;47.90;;;;;;5050455;28;20531;-73
2024/01/19 11:03:46;;;;;;;49.30;24.83;;;3.30;48.40;;;;;;5050563;28;20922;-74
2024/01/19 11:06:12;;;;;;;50.90;26.10;;;3.20;48.30;;;;;;5051532;28;20388;-73
2024/01/19 11:08:38;;;;;;;52.78;26.38;;;3.10;49.80;;;;;;5050557;28;20867;-73
2024/01/19 11:11:05;;;;;;;47.70;25.73;;;3.10;50.50;;;;;;5050527;28;20476;-73
2024/01/19 11:13:38;;;;;;;58.72;28.77;;;3.10;51.10;;;;;;5050428;28;20389;-72
2024/01/19 11:16:10;;;;;;;56.38;27.48;;;3.20;50.60;;;;;;5050173;28;20385;-72
2024/01/19 11:18:35;;;;;;;51.30;26.27;;;3.40;50.20;;;;;;5050362;28;20382;-73
2024/01/19 11:21:01;;;;;;;49.90;26.23;;;3.50;49.30;;;;;;5032354;28;20439;-73
2024/01/19 11:23:28;;;;;;;45.07;24.47;;;3.60;48.40;;;;;;5050206;28;20401;-74
2024/01/19 11:26:19;;;;;;;50.17;25.35;;;3.50;48.60;;;;;;5053678;28;20397;-74
2024/01/19 11:29:00;;;;;;;43.10;23.90;;;3.60;47.60;;;;;;5054935;28;20392;-74
2024/01/19 11:31:30;;;;;;;50.25;24.92;;;3.60;48.00;;;;;;5054220;28;20385;-73
2024/01/19 11:33:57;;;;;;;52.95;25.90;;;3.70;47.90;;;;;;5054068;28;20443;-74
2024/01/19 11:36:47;;;;;;;50.63;24.52;;;3.80;47.80;;;;;;5054275;28;20871;-74
2024/01/19 11:39:42;;;;;;;52.45;26.42;;;3.90;47.20;;;;;;5054555;28;20890;-74
2024/01/19 11:42:33;;;;;;;52.72;26.33;;;3.90;47.40;;;;;;5055121;28;20945;-73
2024/01/19 11:44:59;;;;;;;48.33;25.50;;;3.80;47.30;;;;;;5045934;28;20411;-74
2024/01/19 11:47:38;;;;;;;49.47;25.67;;;3.80;47.80;;;;;;5053952;28;20871;-73
2024/01/19 11:50:09;;;;;;;48.38;25.15;;;3.80;48.20;;;;;;5053955;28;20848;-74
2024/01/19 11:52:35;;;;;;;51.70;25.63;;;3.90;47.70;;;;;;5053573;28;20448;-74
2024/01/19 11:55:26;;;;;;;47.05;25.08;;;4.10;47.30;;;;;;5054142;28;20474;-74
2024/01/19 11:57:55;;;;;;;51.78;25.95;;;4.20;45.90;;;;;;5053743;28;20376;-75
2024/01/19 12:00:21;;;;;;;52.70;24.87;;;4.20;45.70;;;;;;5053612;28;20374;-74
2024/01/19 12:02:48;;;;;;;47.05;25.20;;;4.20;45.70;;;;;;5053527;28;20932;-74
2024/01/19 12:05:18;;;;;;;45.67;25.38;;;4.20;46.00;;;;;;5053653;28;20404;-74
2024/01/19 12:07:44;;;;;;;48.30;24.10;;;4.40;44.90;;;;;;5053958;28;20799;-74
2024/01/19 12:10:10;;;;;;;52.00;24.42;;;4.20;45.10;;;;;;5054170;28;20419;-73
2024/01/19 12:12:37;;;;;;;44.92;22.42;;;4.10;45.80;;;;;;5056076;28;20381;-74
2024/01/19 12:15:04;;;;;;;45.40;23.45;;;4.10;45.70;;;;;;5058245;28;20387;-73
2024/01/19 12:17:30;;;;;;;50.92;24.55;;;4.00;46.40;;;;;;5055749;28;20929;-72
2024/01/19 12:19:57;;;;;;;54.30;24.48;;;4.10;46.40;;;;;;5053641;28;20450;-74
2024/01/19 12:22:22;;;;;;;49.00;24.07;;;4.20;45.70;;;;;;5053576;28;20389;-73
2024/01/19 12:24:48;;;;;;;42.30;22.27;;;4.10;45.70;;;;;;5053272;28;20408;-74
2024/01/19 12:27:17;;;;;;;48.60;22.83;;;4.20;44.90;;;;;;5035408;28;20386;-75
2024/01/19 12:29:44;;;;;;;48.15;22.63;;;4.10;45.50;;;;;;5053118;28;20379;-74
2024/01/19 12:32:10;;;;;;;44.38;22.27;;;4.10;46.10;;;;;;5052586;28;20421;-74